Time;durP1;ratioP1;P1;durP2;ratioP2;P2;SDS_P1;SDS_P2;PMS_P1;PMS_P2;Temp;Humidity;BMP_temperature;BMP_pressure;BME280_temperature;BME280_humidity;BME280_pressure;Samples;Min_cycle;Max_cycle;Signal;HPM_P1;HPM_P2
2020/12/20 00:01:37;;;;;;;6.30;3.03;;;;;;;6.05;73.26;99361.53;5052679;28;20037;-78
2020/12/20 00:04:04;;;;;;;4.70;2.80;;;;;;;5.87;72.98;99351.47;5053054;28;20139;-78
2020/12/20 00:06:37;;;;;;;7.05;3.17;;;;;;;5.80;73.25;99347.72;5054077;28;20110;-79
2020/12/20 00:09:15;;;;;;;4.97;2.78;;;;;;;5.90;72.30;99361.13;5051458;28;20132;-79
2020/12/20 00:11:43;;;;;;;5.95;3.25;;;;;;;5.83;73.00;99353.66;5051821;28;20095;-79
2020/12/20 00:14:27;;;;;;;4.70;3.15;;;;;;;5.87;73.14;99366.84;5051773;28;20045;-79
2020/12/20 00:16:55;;;;;;;5.78;2.78;;;;;;;5.83;74.74;99356.34;5040794;28;20050;-79
2020/12/20 00:19:22;;;;;;;8.95;3.38;;;;;;;5.78;75.05;99350.56;5050012;28;20049;-79
2020/12/20 00:21:58;;;;;;;5.75;3.08;;;;;;;5.63;74.35;99335.84;5053162;28;20068;-79
2020/12/20 00:24:24;;;;;;;8.32;3.85;;;;;;;5.64;74.20;99348.34;5052174;28;20382;-79
2020/12/20 00:26:52;;;;;;;4.65;3.00;;;;;;;5.64;74.86;99348.34;5054341;28;20053;-79
2020/12/20 00:29:18;;;;;;;6.30;3.60;;;;;;;5.55;75.23;99341.16;5053144;28;20313;-79
2020/12/20 00:31:44;;;;;;;6.97;3.55;;;;;;;5.47;75.76;99329.25;5051880;28;20041;-79
2020/12/20 00:34:11;;;;;;;4.68;3.17;;;;;;;5.52;75.85;99339.59;5050172;28;20045;-79
2020/12/20 00:36:37;;;;;;;8.45;3.67;;;;;;;5.42;76.20;99338.78;5040361;28;20060;-79
2020/12/20 00:39:05;;;;;;;9.65;3.20;;;;;;;5.36;76.38;99336.66;5050690;28;20056;-79
2020/12/20 00:41:32;;;;;;;7.20;3.72;;;;;;;5.42;75.84;99344.16;5050745;28;20045;-79
2020/12/20 00:43:58;;;;;;;4.82;3.08;;;;;;;5.22;75.88;99325.34;5049193;28;20057;-79
2020/12/20 00:46:24;;;;;;;6.38;3.72;;;;;;;5.37;75.35;99351.84;5043490;28;20041;-79
2020/12/20 00:48:50;;;;;;;5.88;4.03;;;;;;;5.42;75.21;99349.56;5053062;28;20049;-79
2020/12/20 00:51:17;;;;;;;8.38;3.97;;;;;;;5.39;75.59;99347.16;5052461;28;20057;-79
2020/12/20 00:53:43;;;;;;;8.27;4.93;;;;;;;5.36;75.93;99340.22;5049186;28;20053;-79
2020/12/20 00:56:12;;;;;;;9.68;5.20;;;;;;;5.22;76.42;99328.06;5052107;28;20110;-79
2020/12/20 00:58:38;;;;;;;6.53;4.18;;;;;;;5.28;76.76;99340.97;5050078;28;20493;-79
2020/12/20 01:01:05;;;;;;;6.55;4.30;;;;;;;5.18;76.66;99341.97;5052027;28;20048;-79
2020/12/20 01:03:31;;;;;;;7.85;4.35;;;;;;;5.09;77.39;99338.34;5049723;28;20048;-79
2020/12/20 01:06:04;;;;;;;8.00;4.38;;;;;;;5.19;77.13;99351.75;5052093;28;20060;-79
2020/12/20 01:08:30;;;;;;;8.70;4.68;;;;;;;5.14;77.89;99347.66;5048610;28;20065;-79
2020/12/20 01:10:57;;;;;;;7.40;4.63;;;;;;;5.08;77.87;99347.41;5052612;28;20053;-79
2020/12/20 01:13:24;;;;;;;7.68;4.75;;;;;;;5.06;78.40;99341.28;5040145;28;20048;-79
2020/12/20 01:15:50;;;;;;;6.55;3.97;;;;;;;5.20;77.40;99350.78;5036950;28;20099;-79
2020/12/20 01:18:17;;;;;;;9.15;5.22;;;;;;;5.19;77.52;99351.75;5039946;28;20069;-79
2020/12/20 01:20:43;;;;;;;7.65;4.45;;;;;;;5.14;77.63;99352.22;5045014;28;20045;-79
2020/12/20 01:23:09;;;;;;;5.93;4.15;;;;;;;5.20;78.07;99353.47;5049896;28;20060;-79
2020/12/20 01:25:36;;;;;;;10.00;4.60;;;;;;;5.11;78.75;99352.50;5051467;28;20102;-79
2020/12/20 01:28:02;;;;;;;8.57;4.40;;;;;;;5.06;79.01;99357.44;5040079;28;20060;-79
2020/12/20 01:30:29;;;;;;;7.22;4.63;;;;;;;4.91;78.69;99327.44;5035729;28;20098;-79
2020/12/20 01:32:55;;;;;;;5.38;3.90;;;;;;;5.04;78.64;99345.97;5042210;28;20054;-79
2020/12/20 01:35:21;;;;;;;6.63;4.18;;;;;;;5.06;78.70;99346.69;5050239;28;20060;-79
2020/12/20 01:37:48;;;;;;;5.47;3.55;;;;;;;4.99;78.85;99342.88;5050816;28;20053;-79
2020/12/20 01:40:14;;;;;;;10.73;4.68;;;;;;;5.00;78.92;99349.94;5051427;28;20045;-79
2020/12/20 01:42:40;;;;;;;5.40;3.63;;;;;;;4.96;78.89;99352.09;5050972;28;20049;-79
2020/12/20 01:45:06;;;;;;;8.80;4.28;;;;;;;4.99;79.22;99359.88;5052568;28;20045;-79
2020/12/20 01:47:34;;;;;;;6.68;4.00;;;;;;;5.00;79.44;99350.81;5053653;28;20048;-79
2020/12/20 01:50:01;;;;;;;5.07;3.45;;;;;;;5.01;79.01;99348.97;5053379;28;20459;-79
2020/12/20 01:52:29;;;;;;;6.95;3.88;;;;;;;4.93;79.58;99342.44;5050000;28;20087;-79
2020/12/20 01:55:00;;;;;;;5.82;3.67;;;;;;;4.95;79.54;99351.25;5049344;28;20052;-79
2020/12/20 01:57:26;;;;;;;7.25;4.15;;;;;;;4.95;79.64;99359.34;5051886;28;20126;-79
2020/12/20 01:59:52;;;;;;;7.55;3.78;;;;;;;4.97;79.57;99346.56;5034751;28;20061;-79
2020/12/20 02:02:20;;;;;;;8.60;4.43;;;;;;;4.97;79.25;99346.56;5050450;28;20497;-79
2020/12/20 02:04:48;;;;;;;7.03;3.95;;;;;;;4.91;79.14;99341.75;5050512;28;20052;-79
2020/12/20 02:07:15;;;;;;;6.00;3.92;;;;;;;4.98;79.03;99350.09;5052338;28;20497;-79
2020/12/20 02:09:44;;;;;;;6.80;3.92;;;;;;;5.05;78.55;99340.44;5052316;28;20150;-79
2020/12/20 02:12:10;;;;;;;6.88;4.30;;;;;;;5.05;78.86;99340.44;5052716;28;20135;-79
2020/12/20 02:14:37;;;;;;;5.70;3.42;;;;;;;4.92;78.13;99319.22;5052758;28;20155;-79
2020/12/20 02:17:03;;;;;;;8.18;4.10;;;;;;;5.09;78.17;99339.16;5043915;28;20045;-79
2020/12/20 02:19:29;;;;;;;6.90;3.30;;;;;;;5.14;77.70;99338.72;5050901;28;20494;-79
2020/12/20 02:21:57;;;;;;;6.40;3.72;;;;;;;5.12;76.79;99324.56;5041582;28;20501;-79
2020/12/20 02:24:23;;;;;;;7.30;3.42;;;;;;;5.03;77.13;99320.88;5045665;28;20099;-79
2020/12/20 02:26:49;;;;;;;7.30;3.80;;;;;;;5.15;77.49;99329.66;5045224;28;20052;-79
2020/12/20 02:29:16;;;;;;;5.82;2.95;;;;;;;5.16;77.64;99327.81;5049379;28;20635;-79
2020/12/20 02:31:42;;;;;;;4.80;3.25;;;;;;;5.19;77.99;99336.44;5051746;28;20045;-79
2020/12/20 02:34:10;;;;;;;8.45;3.63;;;;;;;5.15;78.44;99335.06;5051361;28;20067;-79
2020/12/20 02:36:37;;;;;;;12.57;3.92;;;;;;;5.08;79.01;99328.53;5052130;28;20056;-79
2020/12/20 02:39:04;;;;;;;5.82;3.65;;;;;;;5.05;79.24;99318.88;5052551;28;20080;-79
2020/12/20 02:41:31;;;;;;;7.45;3.45;;;;;;;5.10;79.89;99323.84;5053819;28;20508;-79
2020/12/20 02:43:58;;;;;;;7.25;3.45;;;;;;;5.10;79.84;99343.56;5047663;28;20049;-80
2020/12/20 02:46:25;;;;;;;5.43;3.63;;;;;;;5.01;80.02;99322.03;5042757;28;20053;-79
2020/12/20 02:48:51;;;;;;;6.25;3.80;;;;;;;5.08;80.90;99340.16;5056067;28;20489;-79
2020/12/20 02:51:17;;;;;;;6.80;4.10;;;;;;;5.02;81.56;99337.22;5056157;28;20485;-79
2020/12/20 02:53:45;;;;;;;5.93;3.53;;;;;;;4.96;81.50;99347.53;5055841;28;20049;-79
2020/12/20 02:56:12;;;;;;;5.45;3.78;;;;;;;4.94;81.65;99344.16;5055773;28;20053;-79
2020/12/20 02:58:38;;;;;;;4.97;3.30;;;;;;;4.86;82.42;99314.38;5056225;28;20103;-79
2020/12/20 03:01:05;;;;;;;5.22;3.38;;;;;;;4.97;82.52;99338.47;5055686;28;20123;-79
2020/12/20 03:03:31;;;;;;;9.68;3.55;;;;;;;4.98;82.88;99339.31;5055157;28;20456;-79
2020/12/20 03:05:57;;;;;;;5.07;3.45;;;;;;;4.98;83.47;99339.31;5052824;28;20060;-79
2020/12/20 03:08:23;;;;;;;6.22;3.70;;;;;;;4.95;83.32;99324.31;5040868;28;20045;-79
2020/12/20 03:10:50;;;;;;;5.95;4.03;;;;;;;4.88;83.82;99333.13;5053862;28;20045;-79
2020/12/20 03:13:18;;;;;;;5.47;3.70;;;;;;;4.85;83.39;99331.56;5034651;28;20053;-79
2020/12/20 03:15:44;;;;;;;6.93;3.78;;;;;;;4.89;83.49;99327.59;5047165;28;20037;-79
2020/12/20 03:18:11;;;;;;;6.57;3.92;;;;;;;4.96;83.22;99342.16;5054038;28;20064;-79
2020/12/20 03:20:37;;;;;;;5.72;3.47;;;;;;;4.92;83.57;99330.00;5049736;28;20049;-79
2020/12/20 03:23:04;;;;;;;7.90;3.97;;;;;;;4.83;84.06;99316.53;5034449;28;20045;-79
2020/12/20 03:25:30;;;;;;;7.20;3.95;;;;;;;4.86;84.12;99324.31;5050047;28;20053;-79
2020/12/20 03:27:56;;;;;;;7.80;4.03;;;;;;;4.83;84.36;99325.44;5049470;28;20249;-79
2020/12/20 03:30:24;;;;;;;5.68;3.65;;;;;;;4.89;84.06;99329.41;5055064;28;20053;-79
2020/12/20 03:32:50;;;;;;;7.53;4.45;;;;;;;4.87;83.66;99326.03;5046600;28;20049;-79
2020/12/20 03:35:16;;;;;;;5.47;3.33;;;;;;;4.87;82.91;99321.47;5036487;28;20049;-79
2020/12/20 03:37:49;;;;;;;6.00;3.40;;;;;;;4.95;81.71;99318.94;5052941;28;20055;-79
2020/12/20 03:40:16;;;;;;;5.80;3.03;;;;;;;4.85;80.66;99295.66;5040926;28;20049;-79
2020/12/20 03:42:42;;;;;;;8.52;3.38;;;;;;;5.12;79.20;99317.31;5038908;28;20052;-79
2020/12/20 03:45:08;;;;;;;4.78;2.75;;;;;;;5.16;79.25;99319.72;5056102;28;20516;-79
2020/12/20 03:47:36;;;;;;;6.40;3.20;;;;;;;5.18;78.58;99323.09;5061439;28;20049;-79
2020/12/20 03:50:02;;;;;;;10.20;3.25;;;;;;;5.18;79.03;99317.72;5054064;28;20478;-79
2020/12/20 03:52:29;;;;;;;5.70;3.35;;;;;;;5.17;80.05;99326.81;5053625;28;20512;-80
2020/12/20 03:54:55;;;;;;;4.75;3.35;;;;;;;5.13;79.68;99327.13;5054554;28;20060;-79
2020/12/20 03:57:21;;;;;;;5.90;3.55;;;;;;;5.09;80.37;99324.84;5054848;28;20538;-79
2020/12/20 03:59:47;;;;;;;7.93;3.97;;;;;;;4.95;82.19;99307.28;5052248;28;20050;-79
2020/12/20 04:02:14;;;;;;;5.97;3.70;;;;;;;5.02;81.81;99332.66;5048128;28;20053;-79
2020/12/20 04:04:41;;;;;;;5.00;3.13;;;;;;;4.99;82.08;99341.03;5052106;28;20056;-79
2020/12/20 04:07:07;;;;;;;6.22;4.10;;;;;;;4.91;82.42;99324.75;5055317;28;20102;-80
2020/12/20 04:09:34;;;;;;;5.75;3.55;;;;;;;4.90;82.39;99326.56;5054883;28;20041;-80
2020/12/20 04:12:12;;;;;;;8.73;3.72;;;;;;;4.92;81.26;99330.00;5047239;28;20053;-80
2020/12/20 04:14:38;;;;;;;5.82;3.42;;;;;;;4.89;82.07;99324.03;5039779;28;20064;-80
2020/12/20 04:17:04;;;;;;;5.22;3.45;;;;;;;4.89;81.57;99322.19;5054995;28;20056;-79
2020/12/20 04:19:30;;;;;;;7.65;4.53;;;;;;;4.93;81.38;99320.06;5054535;28;20052;-79
2020/12/20 04:21:57;;;;;;;9.07;4.68;;;;;;;4.95;81.07;99313.53;5055153;28;20041;-79
2020/12/20 04:24:24;;;;;;;5.72;3.47;;;;;;;4.94;81.22;99311.00;5053932;28;20049;-79
2020/12/20 04:26:50;;;;;;;8.50;3.95;;;;;;;4.99;81.81;99332.94;5049077;28;20704;-79
2020/12/20 04:29:16;;;;;;;6.43;3.53;;;;;;;4.93;82.02;99307.44;5051566;28;20056;-79
2020/12/20 04:31:42;;;;;;;6.65;3.90;;;;;;;4.94;82.20;99324.47;5035293;28;20821;-80
2020/12/20 04:34:08;;;;;;;6.22;3.50;;;;;;;4.96;81.26;99322.47;5050613;28;20045;-80
2020/12/20 04:36:34;;;;;;;5.65;3.38;;;;;;;4.99;81.62;99313.25;5054853;28;20053;-79
2020/12/20 04:39:02;;;;;;;7.63;3.08;;;;;;;4.92;81.89;99305.75;5054231;28;20057;-80
2020/12/20 04:41:28;;;;;;;5.13;3.25;;;;;;;4.92;81.52;99307.56;5043769;28;20045;-80
2020/12/20 04:43:55;;;;;;;5.72;3.53;;;;;;;5.03;79.31;99326.28;5054662;28;20072;-80
2020/12/20 04:46:21;;;;;;;4.35;3.00;;;;;;;5.07;79.75;99324.13;5054414;28;20102;-80
2020/12/20 04:48:48;;;;;;;4.88;3.22;;;;;;;5.10;79.78;99327.41;5054985;28;20068;-80
2020/12/20 04:51:16;;;;;;;6.57;3.70;;;;;;;5.07;79.47;99327.69;5054106;28;20509;-80
2020/12/20 04:53:43;;;;;;;3.55;2.80;;;;;;;4.99;79.22;99324.03;5052913;28;20060;-79
2020/12/20 04:56:12;;;;;;;5.55;3.10;;;;;;;5.09;80.22;99330.25;5053792;28;20386;-79
2020/12/20 04:58:39;;;;;;;4.57;3.10;;;;;;;4.92;80.88;99316.53;5054376;28;20048;-79
2020/12/20 05:01:06;;;;;;;4.55;3.15;;;;;;;5.05;81.09;99334.22;5054378;28;20045;-80
2020/12/20 05:03:33;;;;;;;5.07;3.47;;;;;;;4.97;80.97;99322.31;5053862;28;20045;-79
2020/12/20 05:05:59;;;;;;;5.90;3.97;;;;;;;4.95;81.61;99323.44;5048447;28;20053;-79
2020/12/20 05:08:25;;;;;;;6.40;3.72;;;;;;;4.90;81.78;99314.97;5033944;28;20619;-79
2020/12/20 05:10:54;;;;;;;6.68;3.75;;;;;;;4.88;81.70;99319.66;5034750;28;20057;-80
2020/12/20 05:13:21;;;;;;;6.20;4.20;;;;;;;4.84;81.73;99315.53;5033612;28;20049;-79
2020/12/20 05:15:48;;;;;;;5.50;4.05;;;;;;;4.89;81.76;99319.50;5047948;28;20052;-80
2020/12/20 05:18:17;;;;;;;6.82;4.03;;;;;;;4.88;82.56;99322.34;5052719;28;20111;-80
2020/12/20 05:20:44;;;;;;;6.93;3.33;;;;;;;4.84;82.55;99327.16;5047940;28;20049;-79
2020/12/20 05:23:12;;;;;;;7.43;4.00;;;;;;;4.88;81.85;99328.56;5033588;28;20056;-79
2020/12/20 05:25:40;;;;;;;6.10;3.60;;;;;;;4.88;82.39;99323.19;5038577;28;20049;-80
2020/12/20 05:28:12;;;;;;;5.90;3.90;;;;;;;4.88;82.23;99316.97;5053547;28;20099;-79
2020/12/20 05:30:40;;;;;;;6.28;3.33;;;;;;;4.96;80.34;99315.22;5041122;28;20037;-80
2020/12/20 05:33:07;;;;;;;5.47;3.03;;;;;;;4.83;79.85;99297.66;5033242;28;20391;-79
2020/12/20 05:35:34;;;;;;;5.43;3.33;;;;;;;4.93;79.95;99303.91;5033281;28;20107;-80
2020/12/20 05:38:01;;;;;;;4.40;2.70;;;;;;;4.99;78.21;99313.25;5033424;28;20481;-79
2020/12/20 05:40:30;;;;;;;6.15;3.63;;;;;;;5.02;78.77;99310.25;5044843;28;20045;-79
2020/12/20 05:42:59;;;;;;;7.22;3.45;;;;;;;5.02;79.79;99311.09;5032953;28;20049;-79
2020/12/20 05:45:27;;;;;;;4.75;3.05;;;;;;;5.00;78.83;99307.72;5048431;28;20094;-80
2020/12/20 05:47:55;;;;;;;6.35;3.22;;;;;;;4.99;80.28;99310.56;5054126;28;20059;-79
2020/12/20 05:50:26;;;;;;;3.88;3.20;;;;;;;4.97;80.83;99316.94;5039137;28;20465;-79
2020/12/20 05:53:06;;;;;;;7.15;3.50;;;;;;;4.95;79.94;99326.13;5052409;28;20057;-80
2020/12/20 05:55:39;;;;;;;5.38;3.58;;;;;;;4.90;80.68;99318.50;5039562;28;20042;-79
2020/12/20 05:58:10;;;;;;;7.75;4.13;;;;;;;4.72;81.67;99302.22;5033521;28;20401;-79
2020/12/20 06:00:38;;;;;;;5.88;4.03;;;;;;;4.68;82.00;99310.72;5048317;28;20059;-79
2020/12/20 06:03:05;;;;;;;7.80;4.53;;;;;;;4.73;82.71;99314.69;5053473;28;20045;-80
2020/12/20 06:05:35;;;;;;;5.60;4.13;;;;;;;4.64;82.43;99304.78;5050136;28;20049;-79
2020/12/20 06:08:07;;;;;;;8.40;4.22;;;;;;;4.72;82.53;99331.00;5053398;28;20045;-80
2020/12/20 06:10:39;;;;;;;7.18;3.78;;;;;;;4.68;83.24;99343.03;5051454;28;20045;-80
2020/12/20 06:13:10;;;;;;;5.68;3.88;;;;;;;4.65;83.30;99337.94;5053032;28;20503;-80
2020/12/20 06:15:39;;;;;;;6.28;4.10;;;;;;;4.69;82.95;99334.00;5039343;28;20040;-79
2020/12/20 06:18:12;;;;;;;6.82;4.32;;;;;;;4.72;82.41;99328.31;5052278;28;20049;-79
2020/12/20 06:20:55;;;;;;;6.57;4.20;;;;;;;4.68;82.61;99333.16;5043615;28;20136;-80
2020/12/20 06:23:23;;;;;;;6.13;3.80;;;;;;;4.67;82.96;99338.69;5043007;28;20061;-79
2020/12/20 06:25:51;;;;;;;5.18;4.07;;;;;;;4.69;82.93;99347.44;5039662;28;20107;-79
2020/12/20 06:28:22;;;;;;;6.57;4.32;;;;;;;4.53;82.75;99331.84;5042522;28;20048;-79
2020/12/20 06:30:49;;;;;;;8.05;4.65;;;;;;;4.64;83.02;99337.09;5053263;28;20060;-80
2020/12/20 06:33:25;;;;;;;7.53;4.43;;;;;;;4.67;82.23;99338.69;5049711;28;20055;-80
2020/12/20 06:35:53;;;;;;;7.57;4.00;;;;;;;4.63;83.07;99351.56;5053372;28;20075;-80
2020/12/20 06:38:34;;;;;;;8.45;4.30;;;;;;;4.51;83.33;99348.16;5049453;28;20046;-80
2020/12/20 06:41:00;;;;;;;7.15;4.05;;;;;;;4.48;83.33;99345.75;5040450;28;20504;-79
2020/12/20 06:43:31;;;;;;;7.45;4.35;;;;;;;4.40;83.95;99326.78;5033706;28;20049;-80
2020/12/20 06:45:57;;;;;;;5.90;3.92;;;;;;;4.50;84.44;99343.78;5052791;28;20099;-80
2020/12/20 06:48:34;;;;;;;5.40;3.28;;;;;;;4.50;83.88;99349.16;5052031;28;20055;-80
2020/12/20 06:51:01;;;;;;;6.32;3.90;;;;;;;4.53;83.84;99367.72;5047772;28;20076;-79
2020/12/20 06:53:51;;;;;;;6.28;4.32;;;;;;;4.51;83.79;99364.31;5052844;28;20049;-80
2020/12/20 06:56:19;;;;;;;6.53;3.58;;;;;;;4.41;84.13;99347.28;5033934;28;20582;-80
2020/12/20 06:58:46;;;;;;;9.20;4.90;;;;;;;4.54;84.11;99368.56;5043144;28;20083;-80
2020/12/20 07:01:34;;;;;;;7.55;4.00;;;;;;;4.57;83.77;99358.34;5047641;28;20485;-80
2020/12/20 07:04:01;;;;;;;7.25;3.92;;;;;;;4.60;83.52;99360.75;5033033;28;20374;-80
2020/12/20 07:06:28;;;;;;;5.22;3.90;;;;;;;4.56;83.63;99364.75;5033562;28;20041;-80
2020/12/20 07:08:56;;;;;;;4.53;3.47;;;;;;;4.39;83.43;99349.28;5052437;28;20059;-80
2020/12/20 07:11:25;;;;;;;6.25;3.67;;;;;;;4.47;84.19;99367.44;5052869;28;20045;-80
2020/12/20 07:13:54;;;;;;;6.03;4.20;;;;;;;4.41;83.75;99355.38;5052073;28;20076;-79
2020/12/20 07:16:21;;;;;;;6.93;4.88;;;;;;;4.51;83.92;99375.06;5052512;28;20052;-80
2020/12/20 07:18:55;;;;;;;9.38;4.70;;;;;;;4.51;83.60;99358.09;5051344;28;20615;-80
2020/12/20 07:21:46;;;;;;;6.40;4.65;;;;;;;4.48;84.39;99369.97;5032746;28;20049;-79
2020/12/20 07:24:17;;;;;;;6.70;4.05;;;;;;;4.40;85.05;99372.53;5033333;28;20099;-79
2020/12/20 07:26:44;;;;;;;5.40;4.22;;;;;;;4.46;84.82;99385.44;5032456;28;20441;-79
2020/12/20 07:29:10;;;;;;;7.60;4.75;;;;;;;4.47;84.48;99389.84;5034664;28;20573;-79
2020/12/20 07:31:37;;;;;;;7.95;4.90;;;;;;;4.35;84.93;99385.53;5047429;28;20049;-78
2020/12/20 07:34:06;;;;;;;8.48;4.55;;;;;;;4.54;83.63;99393.63;5055063;28;20055;-78
2020/12/20 07:36:33;;;;;;;7.65;4.45;;;;;;;4.49;84.18;99395.06;5055888;28;20045;-81
2020/12/20 07:39:00;;;;;;;10.50;5.88;;;;;;;4.58;83.36;99400.44;5056241;28;20053;-78
2020/12/20 07:41:26;;;;;;;8.00;5.38;;;;;;;4.45;83.76;99391.78;5055671;28;20045;-80
2020/12/20 07:43:53;;;;;;;8.70;5.05;;;;;;;4.56;83.61;99405.13;5055661;28;20099;-80
2020/12/20 07:46:23;;;;;;;8.70;4.95;;;;;;;4.50;83.44;99410.22;5055256;28;20049;-79
2020/12/20 07:48:50;;;;;;;7.13;4.55;;;;;;;4.48;83.73;99409.53;5037166;28;20045;-79
2020/12/20 07:51:18;;;;;;;7.20;5.03;;;;;;;4.60;83.73;99411.91;5035997;28;20527;-79
2020/12/20 07:53:46;;;;;;;6.35;4.93;;;;;;;4.50;83.99;99399.44;5038971;28;20079;-79
2020/12/20 07:56:23;;;;;;;7.40;5.15;;;;;;;4.42;84.13;99381.31;5055516;28;20040;-79
2020/12/20 07:58:50;;;;;;;8.43;5.25;;;;;;;4.58;84.79;99410.38;5036776;28;20045;-80
2020/12/20 08:01:17;;;;;;;19.40;8.00;;;;;;;4.52;84.17;99413.66;5035812;28;20100;-80
2020/12/20 08:03:43;;;;;;;39.28;11.63;;;;;;;4.57;84.13;99411.38;5039262;28;20048;-80
2020/12/20 08:06:10;;;;;;;22.77;8.80;;;;;;;4.70;83.48;99425.41;5055409;28;20052;-80
2020/12/20 08:08:37;;;;;;;18.50;6.70;;;;;;;4.47;84.24;99397.03;5047520;28;20037;-79
2020/12/20 08:11:12;;;;;;;14.73;7.50;;;;;;;4.65;84.13;99419.56;5043465;28;20472;-80
2020/12/20 08:13:49;;;;;;;10.70;6.10;;;;;;;4.76;82.99;99413.22;5049216;28;20382;-80
2020/12/20 08:16:23;;;;;;;9.43;6.43;;;;;;;4.92;82.55;99415.34;5053005;28;20040;-80
2020/12/20 08:18:54;;;;;;;10.75;6.03;;;;;;;4.86;83.41;99418.59;5042406;28;20080;-80
2020/12/20 08:21:30;;;;;;;10.95;6.15;;;;;;;4.84;83.16;99417.91;5042826;28;20049;-80
2020/12/20 08:23:58;;;;;;;13.27;6.95;;;;;;;4.89;83.16;99407.53;5050407;28;20041;-80
2020/12/20 08:26:32;;;;;;;11.57;6.22;;;;;;;4.96;82.71;99401.44;5052861;28;20060;-80
2020/12/20 08:29:00;;;;;;;10.63;6.38;;;;;;;5.08;82.21;99402.13;5050772;28;20527;-79
2020/12/20 08:31:30;;;;;;;8.48;5.40;;;;;;;4.78;83.24;99390.53;5040379;28;20124;-80
2020/12/20 08:33:57;;;;;;;10.40;6.70;;;;;;;5.18;82.36;99399.44;5047452;28;20053;-79
2020/12/20 08:36:24;;;;;;;9.45;5.22;;;;;;;5.22;81.38;99405.38;5036695;28;20045;-79
2020/12/20 08:38:53;;;;;;;8.80;5.28;;;;;;;5.19;82.67;99405.66;5034285;28;20049;-79
2020/12/20 08:41:27;;;;;;;9.27;6.23;;;;;;;5.17;81.91;99407.69;5039600;28;20041;-80
2020/12/20 08:44:09;;;;;;;11.50;5.75;;;;;;;5.19;82.12;99405.66;5052657;28;20520;-79
2020/12/20 08:46:37;;;;;;;14.20;6.00;;;;;;;5.21;82.13;99407.25;5050958;28;20041;-80
2020/12/20 08:49:28;;;;;;;9.77;5.68;;;;;;;5.20;82.30;99410.91;5052951;28;20094;-80
2020/12/20 08:52:05;;;;;;;;;;;;;;;5.26;82.00;99414.88;5040864;28;20048;-80
2020/12/20 08:54:31;;;;;;;10.20;5.93;;;;;;;5.26;82.02;99422.97;5049897;28;19929;-79
2020/12/20 08:56:59;;;;;;;9.80;5.70;;;;;;;5.26;81.54;99415.72;5054110;28;20049;-79
2020/12/20 08:59:31;;;;;;;8.43;5.93;;;;;;;5.32;81.62;99435.88;5051482;28;20517;-79
2020/12/20 09:01:58;;;;;;;9.07;5.90;;;;;;;5.29;81.14;99439.69;5052733;28;20045;-80
2020/12/20 09:04:25;;;;;;;14.43;6.00;;;;;;;5.35;81.05;99423.97;5053842;28;20434;-79
2020/12/20 09:06:59;;;;;;;8.13;6.05;;;;;;;5.19;80.96;99424.53;5053480;28;20095;-79
2020/12/20 09:09:26;;;;;;;8.13;6.00;;;;;;;5.36;81.07;99439.13;5047604;28;20049;-79
2020/12/20 09:11:52;;;;;;;10.95;5.65;;;;;;;5.15;81.35;99413.22;5053858;28;20500;-79
2020/12/20 09:14:18;;;;;;;10.40;6.20;;;;;;;5.37;81.40;99438.13;5052966;28;20052;-79
2020/12/20 09:16:46;;;;;;;9.75;5.43;;;;;;;5.39;81.07;99428.03;5052151;28;20049;-79
2020/12/20 09:19:12;;;;;;;8.73;5.22;;;;;;;5.44;80.53;99423.91;5051570;28;20071;-80
2020/12/20 09:21:39;;;;;;;8.77;5.45;;;;;;;5.52;79.66;99430.44;5053435;28;20044;-79
2020/12/20 09:24:05;;;;;;;12.05;5.22;;;;;;;5.46;79.63;99413.00;5054094;28;20045;-80
2020/12/20 09:26:53;;;;;;;8.95;5.78;;;;;;;5.43;80.22;99424.06;5053821;28;20053;-80
2020/12/20 09:29:19;;;;;;;9.43;5.65;;;;;;;5.65;79.19;99420.19;5054159;28;20060;-80
2020/12/20 09:31:48;;;;;;;12.57;6.22;;;;;;;5.71;79.38;99426.84;5053375;28;20045;-79
2020/12/20 09:34:15;;;;;;;8.85;6.32;;;;;;;5.60;79.50;99419.75;5053699;28;20417;-80
2020/12/20 09:36:47;;;;;;;11.10;6.72;;;;;;;5.70;80.05;99425.97;5053288;28;20382;-79
2020/12/20 09:39:13;;;;;;;16.83;6.47;;;;;;;5.91;78.84;99419.50;5052988;28;20045;-79
2020/12/20 09:41:40;;;;;;;11.65;6.00;;;;;;;5.61;79.92;99427.69;5053344;28;20495;-80
2020/12/20 09:44:06;;;;;;;9.15;6.00;;;;;;;5.81;79.14;99428.50;5052562;28;20045;-80
2020/12/20 09:46:35;;;;;;;9.52;6.07;;;;;;;5.68;79.85;99419.88;5050749;28;20061;-80
2020/12/20 09:49:04;;;;;;;9.53;5.73;;;;;;;5.70;79.80;99425.13;5052117;28;20049;-80
2020/12/20 09:51:33;;;;;;;9.07;5.32;;;;;;;5.54;79.87;99410.44;5051594;28;20299;-79
2020/12/20 09:54:05;;;;;;;13.20;6.53;;;;;;;5.61;80.42;99406.13;5053235;28;20045;-80
2020/12/20 09:56:31;;;;;;;10.68;6.93;;;;;;;5.76;80.13;99419.16;5052871;28;20497;-79
2020/12/20 09:58:57;;;;;;;9.95;6.68;;;;;;;5.79;80.11;99426.94;5051683;28;20045;-79
2020/12/20 10:01:25;;;;;;;11.85;6.20;;;;;;;5.63;79.59;99404.16;5042889;28;20087;-79
2020/12/20 10:03:52;;;;;;;14.00;6.20;;;;;;;5.84;79.27;99430.91;5049144;28;20309;-79
2020/12/20 10:06:19;;;;;;;11.55;6.65;;;;;;;5.92;79.10;99422.06;5049885;28;20055;-79
2020/12/20 10:08:46;;;;;;;10.13;6.22;;;;;;;6.01;78.78;99426.59;5050763;28;20059;-79
2020/12/20 10:11:17;;;;;;;11.18;6.25;;;;;;;6.04;78.05;99420.06;5051173;28;20572;-79
2020/12/20 10:13:44;;;;;;;10.75;6.07;;;;;;;6.06;76.99;99409.13;5050725;28;20123;-79
2020/12/20 10:16:11;;;;;;;17.65;6.43;;;;;;;6.15;78.07;99416.31;5031138;28;20056;-79
2020/12/20 10:18:37;;;;;;;11.40;7.00;;;;;;;6.17;78.01;99420.56;5048957;28;20045;-79
2020/12/20 10:21:17;;;;;;;11.70;7.43;;;;;;;6.28;78.17;99415.94;5052895;28;20049;-79
2020/12/20 10:23:44;;;;;;;13.02;8.00;;;;;;;6.27;77.07;99419.66;5053088;28;20053;-79
2020/12/20 10:26:11;;;;;;;13.95;9.15;;;;;;;6.38;77.13;99406.78;5052902;28;20099;-80
2020/12/20 10:28:38;;;;;;;9.35;6.60;;;;;;;6.48;76.72;99411.28;5052802;28;20037;-79
2020/12/20 10:31:05;;;;;;;8.85;5.45;;;;;;;6.45;76.35;99409.72;5051751;28;20049;-79
2020/12/20 10:33:34;;;;;;;9.48;6.20;;;;;;;6.44;76.18;99399.91;5047597;28;20038;-80
2020/12/20 10:36:01;;;;;;;13.18;7.22;;;;;;;6.66;76.30;99419.41;5049132;28;20037;-79
2020/12/20 10:38:27;;;;;;;9.23;5.88;;;;;;;6.64;75.14;99421.38;5049880;28;20139;-80
2020/12/20 10:41:01;;;;;;;14.35;6.38;;;;;;;6.65;76.22;99418.53;5050995;28;20075;-79
2020/12/20 10:43:28;;;;;;;10.43;6.07;;;;;;;6.64;75.68;99415.97;5050529;28;20049;-80
2020/12/20 10:45:54;;;;;;;9.50;5.75;;;;;;;6.67;75.97;99421.94;5050559;28;20052;-80
2020/12/20 10:48:21;;;;;;;9.70;6.10;;;;;;;6.69;76.37;99422.63;5050486;28;20119;-79
2020/12/20 10:50:49;;;;;;;8.52;6.00;;;;;;;6.71;75.85;99425.19;5047311;28;20079;-79
2020/12/20 10:53:15;;;;;;;13.00;6.88;;;;;;;6.68;76.59;99412.81;5048190;28;20049;-79
2020/12/20 10:55:50;;;;;;;10.18;6.10;;;;;;;6.81;75.88;99425.13;5052109;28;20444;-80
2020/12/20 10:58:17;;;;;;;8.05;5.03;;;;;;;6.79;72.79;99430.69;5048999;28;20049;-80
2020/12/20 11:00:43;;;;;;;8.25;5.03;;;;;;;6.80;72.54;99431.53;5049102;28;20045;-80
2020/12/20 11:03:10;;;;;;;7.32;4.72;;;;;;;6.83;72.06;99421.25;5043147;28;20075;-80
2020/12/20 11:05:50;;;;;;;8.38;5.22;;;;;;;6.95;73.33;99426.44;5053053;28;20079;-79
2020/12/20 11:08:17;;;;;;;9.48;6.30;;;;;;;6.84;73.06;99401.31;5055323;28;20056;-79
2020/12/20 11:10:43;;;;;;;9.10;5.35;;;;;;;6.94;72.69;99406.66;5055851;28;20071;-80
2020/12/20 11:13:09;;;;;;;8.73;5.53;;;;;;;6.94;74.52;99416.59;5056231;28;20057;-80
2020/12/20 11:15:36;;;;;;;8.05;5.20;;;;;;;6.93;74.44;99426.59;5056130;28;20064;-79
2020/12/20 11:18:02;;;;;;;8.20;5.43;;;;;;;7.08;74.55;99427.72;5053194;28;20077;-80
2020/12/20 11:20:29;;;;;;;14.68;7.45;;;;;;;7.11;74.14;99414.91;5055165;28;20048;-80
2020/12/20 11:22:55;;;;;;;12.95;6.15;;;;;;;7.21;74.34;99426.47;5053488;28;20057;-80
2020/12/20 11:25:21;;;;;;;15.90;7.25;;;;;;;7.21;73.30;99418.34;5055192;28;20045;-80
2020/12/20 11:27:48;;;;;;;11.77;6.97;;;;;;;7.34;73.12;99424.19;5055074;28;20623;-80
2020/12/20 11:30:14;;;;;;;9.88;5.97;;;;;;;7.23;73.74;99414.50;5055659;28;20045;-80
2020/12/20 11:32:41;;;;;;;8.18;5.95;;;;;;;7.40;74.00;99415.44;5054409;28;20041;-80
2020/12/20 11:35:09;;;;;;;9.30;5.72;;;;;;;7.44;73.90;99414.13;5053714;28;20459;-80
2020/12/20 11:37:35;;;;;;;9.82;6.00;;;;;;;7.47;73.69;99404.88;5054121;28;20088;-80
2020/12/20 11:40:02;;;;;;;8.82;4.97;;;;;;;7.31;73.09;99400.19;5053702;28;20524;-80
2020/12/20 11:42:28;;;;;;;8.05;5.90;;;;;;;7.46;71.31;99396.91;5054443;28;20048;-80
2020/12/20 11:44:54;;;;;;;10.85;6.47;;;;;;;7.49;71.66;99400.13;5053422;28;20052;-80
2020/12/20 11:47:21;;;;;;;12.30;6.20;;;;;;;7.39;73.44;99397.53;5054053;28;20049;-80